Time;durP1;ratioP1;P1;durP2;ratioP2;P2;SDS_P1;SDS_P2;PMS_P1;PMS_P2;Temp;Humidity;BMP_temperature;BMP_pressure;BME280_temperature;BME280_humidity;BME280_pressure;Samples;Min_cycle;Max_cycle;Signal;HPM_P1;HPM_P2
2022/07/25 00:00:02;;;;;;;7.68;4.35;;;24.80;63.60;;;;;;5013447;28;20113;-66
2022/07/25 00:02:30;;;;;;;7.15;4.30;;;24.80;63.70;;;;;;5014164;28;20041;-67
2022/07/25 00:04:55;;;;;;;8.70;4.55;;;24.70;63.80;;;;;;5013770;28;20395;-66
2022/07/25 00:07:21;;;;;;;7.82;4.30;;;24.70;63.80;;;;;;5013243;28;20413;-65
2022/07/25 00:09:47;;;;;;;7.47;4.00;;;24.70;63.80;;;;;;5013482;28;20408;-67
2022/07/25 00:12:12;;;;;;;7.18;4.15;;;24.70;64.00;;;;;;5014478;28;20117;-66
2022/07/25 00:14:38;;;;;;;7.43;4.50;;;24.60;64.00;;;;;;5015179;28;20056;-66
2022/07/25 00:17:04;;;;;;;6.60;3.97;;;24.60;64.10;;;;;;5016995;28;20041;-66
2022/07/25 00:19:29;;;;;;;6.72;4.13;;;24.60;64.20;;;;;;5016896;28;20368;-66
2022/07/25 00:21:55;;;;;;;7.00;4.32;;;24.60;64.30;;;;;;5018158;28;20033;-66
2022/07/25 00:24:21;;;;;;;6.32;3.90;;;24.60;64.40;;;;;;5017317;28;20037;-66
2022/07/25 00:26:46;;;;;;;6.97;3.95;;;24.60;64.40;;;;;;5017555;28;20033;-66
2022/07/25 00:29:12;;;;;;;7.65;4.50;;;24.50;64.40;;;;;;5009798;28;20022;-66
2022/07/25 00:31:37;;;;;;;7.18;3.88;;;24.50;64.50;;;;;;5018537;28;20127;-66
2022/07/25 00:34:03;;;;;;;8.65;3.88;;;24.50;64.60;;;;;;5017108;28;20033;-67
2022/07/25 00:36:28;;;;;;;8.05;4.40;;;24.50;64.70;;;;;;5016654;28;20050;-66
2022/07/25 00:38:54;;;;;;;6.47;3.72;;;24.40;64.70;;;;;;5016874;28;20049;-66
2022/07/25 00:41:20;;;;;;;7.95;4.03;;;24.40;64.80;;;;;;5017637;28;20463;-66
2022/07/25 00:43:46;;;;;;;9.38;4.43;;;24.40;64.80;;;;;;5015924;28;20026;-66
2022/07/25 00:46:15;;;;;;;6.45;3.95;;;24.40;64.80;;;;;;5016589;28;20036;-66
2022/07/25 00:48:41;;;;;;;6.97;4.28;;;24.40;64.90;;;;;;5009571;28;20045;-66
2022/07/25 00:51:08;;;;;;;8.93;4.47;;;24.40;64.90;;;;;;5013780;28;20117;-65
2022/07/25 00:53:37;;;;;;;6.97;4.35;;;24.30;64.90;;;;;;5016885;28;20091;-66
2022/07/25 00:56:04;;;;;;;8.65;3.92;;;24.30;64.90;;;;;;5010960;28;20058;-67
2022/07/25 00:58:29;;;;;;;7.70;4.68;;;24.30;65.00;;;;;;5016389;28;20051;-67
2022/07/25 01:00:55;;;;;;;7.40;4.38;;;24.30;65.10;;;;;;5015385;28;20026;-66
2022/07/25 01:03:21;;;;;;;7.70;4.43;;;24.20;65.20;;;;;;5015896;28;20443;-65
2022/07/25 01:05:49;;;;;;;6.53;3.95;;;24.20;65.20;;;;;;5015825;28;20065;-66
2022/07/25 01:08:19;;;;;;;7.78;4.30;;;24.20;65.30;;;;;;5016274;28;20038;-66
2022/07/25 01:10:46;;;;;;;7.78;4.70;;;24.20;65.30;;;;;;5016377;28;20034;-66
2022/07/25 01:13:12;;;;;;;7.40;4.20;;;24.20;65.40;;;;;;5016735;28;20038;-66
2022/07/25 01:15:38;;;;;;;7.30;4.40;;;24.20;65.50;;;;;;5016648;28;20026;-66
2022/07/25 01:18:04;;;;;;;8.07;4.80;;;24.20;65.50;;;;;;5015978;28;20351;-66
2022/07/25 01:20:30;;;;;;;7.40;4.43;;;24.20;65.50;;;;;;5014530;28;20021;-66
2022/07/25 01:22:57;;;;;;;6.72;4.22;;;24.10;65.50;;;;;;5031688;28;20069;-66
2022/07/25 01:25:23;;;;;;;7.38;4.18;;;24.10;65.60;;;;;;5016131;28;20431;-67
2022/07/25 01:27:50;;;;;;;7.47;4.88;;;24.10;65.70;;;;;;5015313;28;20025;-66
2022/07/25 01:30:16;;;;;;;7.88;4.93;;;24.10;65.70;;;;;;5016128;28;20565;-66
2022/07/25 01:32:44;;;;;;;7.82;4.90;;;24.10;65.70;;;;;;5015585;28;20069;-66
2022/07/25 01:35:11;;;;;;;8.20;4.63;;;24.10;65.70;;;;;;5015187;28;20042;-66
2022/07/25 01:37:37;;;;;;;7.28;4.65;;;24.00;65.60;;;;;;5016759;28;20030;-66
2022/07/25 01:40:04;;;;;;;7.40;4.70;;;24.00;65.70;;;;;;5014870;28;20355;-66
2022/07/25 01:42:29;;;;;;;7.32;4.70;;;24.00;65.70;;;;;;5016141;28;20117;-67
2022/07/25 01:44:55;;;;;;;8.63;5.18;;;24.00;65.80;;;;;;5016481;28;20108;-66
2022/07/25 01:47:21;;;;;;;8.05;5.00;;;24.00;65.80;;;;;;5013760;28;20101;-67
2022/07/25 01:49:47;;;;;;;8.65;5.00;;;23.90;65.80;;;;;;5014313;28;20025;-65
2022/07/25 01:52:13;;;;;;;8.10;5.22;;;23.90;65.80;;;;;;5016205;28;20025;-65
2022/07/25 01:54:40;;;;;;;7.70;4.50;;;23.90;65.90;;;;;;5015970;28;20121;-65
2022/07/25 01:57:06;;;;;;;8.57;5.13;;;23.90;65.90;;;;;;5014185;28;20471;-66
2022/07/25 01:59:31;;;;;;;7.90;4.88;;;23.90;66.00;;;;;;5015071;28;20018;-66
2022/07/25 02:01:57;;;;;;;7.75;5.20;;;23.90;66.10;;;;;;5012850;28;20025;-66
2022/07/25 02:04:23;;;;;;;8.32;5.00;;;23.90;66.20;;;;;;5016765;28;20432;-66
2022/07/25 02:06:49;;;;;;;8.63;5.00;;;23.80;66.10;;;;;;5014720;28;20030;-66
2022/07/25 02:09:15;;;;;;;10.35;4.93;;;23.80;66.20;;;;;;5014388;28;20064;-66
2022/07/25 02:11:40;;;;;;;7.18;4.97;;;23.80;66.30;;;;;;5013268;28;20209;-65
2022/07/25 02:14:06;;;;;;;7.35;4.82;;;23.80;66.30;;;;;;5013948;28;20045;-66
2022/07/25 02:16:32;;;;;;;7.65;4.97;;;23.80;66.40;;;;;;5014438;28;20095;-66
2022/07/25 02:18:57;;;;;;;9.07;4.90;;;23.80;66.40;;;;;;5014693;28;20120;-66
2022/07/25 02:21:24;;;;;;;9.60;5.32;;;23.80;66.40;;;;;;5013561;28;20040;-67
2022/07/25 02:23:50;;;;;;;8.00;4.80;;;23.70;66.40;;;;;;5016194;28;20052;-66
2022/07/25 02:26:16;;;;;;;8.52;4.82;;;23.70;67.10;;;;;;5013115;28;20447;-65
2022/07/25 02:28:42;;;;;;;7.93;5.25;;;23.70;66.50;;;;;;5013109;28;20417;-66
2022/07/25 02:31:08;;;;;;;8.65;5.72;;;23.70;66.50;;;;;;5017777;28;20084;-65
2022/07/25 02:33:34;;;;;;;7.95;5.22;;;23.70;66.60;;;;;;5015246;28;20030;-66
2022/07/25 02:35:59;;;;;;;8.23;5.47;;;23.60;66.60;;;;;;5018700;28;20355;-66
2022/07/25 02:38:25;;;;;;;9.52;5.55;;;23.60;66.60;;;;;;5014709;28;20104;-66
2022/07/25 02:40:52;;;;;;;8.48;5.32;;;23.60;66.70;;;;;;5014330;28;20030;-66
2022/07/25 02:43:18;;;;;;;8.38;5.53;;;23.60;66.80;;;;;;5014314;28;20112;-66
2022/07/25 02:45:44;;;;;;;9.15;6.03;;;23.60;66.90;;;;;;5013749;28;20125;-66
2022/07/25 02:48:11;;;;;;;8.00;5.30;;;23.60;66.90;;;;;;5015294;28;20920;-66
2022/07/25 02:50:37;;;;;;;8.60;5.63;;;23.60;66.90;;;;;;5013875;28;20069;-67
2022/07/25 02:53:03;;;;;;;8.10;5.18;;;23.60;66.90;;;;;;5007705;28;20037;-61
2022/07/25 02:55:29;;;;;;;8.10;5.60;;;23.60;66.90;;;;;;5013049;28;20513;-60
2022/07/25 02:57:55;;;;;;;8.10;5.82;;;23.50;66.90;;;;;;5013523;28;20450;-61
2022/07/25 03:00:21;;;;;;;10.88;5.97;;;23.50;67.00;;;;;;5013378;28;20030;-61
2022/07/25 03:02:47;;;;;;;9.02;6.28;;;23.50;67.00;;;;;;5010457;28;20022;-61
2022/07/25 03:05:14;;;;;;;8.90;6.13;;;23.50;67.00;;;;;;5008920;28;20018;-61
2022/07/25 03:07:41;;;;;;;9.07;6.22;;;23.50;67.00;;;;;;4995869;28;20363;-61
2022/07/25 03:10:09;;;;;;;9.73;6.13;;;23.50;67.00;;;;;;5013480;28;20101;-62
2022/07/25 03:12:34;;;;;;;10.15;6.05;;;23.50;67.00;;;;;;5013476;28;20147;-61
2022/07/25 03:15:01;;;;;;;10.25;6.63;;;23.50;67.00;;;;;;5024358;28;20490;-61
2022/07/25 03:17:28;;;;;;;9.55;6.10;;;23.40;66.90;;;;;;4996533;28;20025;-61
2022/07/25 03:19:54;;;;;;;11.43;6.65;;;23.40;66.90;;;;;;5012646;28;20034;-61
2022/07/25 03:22:21;;;;;;;8.70;5.90;;;23.40;66.90;;;;;;5013306;28;20030;-61
2022/07/25 03:24:47;;;;;;;9.20;6.53;;;23.40;66.90;;;;;;5013666;28;20057;-61
2022/07/25 03:27:13;;;;;;;8.48;5.90;;;23.40;67.00;;;;;;5011273;28;20430;-61
2022/07/25 03:29:39;;;;;;;9.57;6.07;;;23.40;67.00;;;;;;5014294;28;20149;-61
2022/07/25 03:32:06;;;;;;;10.23;7.15;;;23.40;67.10;;;;;;5012787;28;20351;-61
2022/07/25 03:34:31;;;;;;;9.90;6.60;;;23.40;67.20;;;;;;5013713;28;20424;-61
2022/07/25 03:36:59;;;;;;;10.70;6.88;;;23.40;67.20;;;;;;5011698;28;20072;-61
2022/07/25 03:39:25;;;;;;;9.60;6.65;;;23.30;67.20;;;;;;5013208;28;20095;-61
2022/07/25 03:41:51;;;;;;;10.55;6.72;;;23.30;67.20;;;;;;5011335;28;20050;-61
2022/07/25 03:44:18;;;;;;;9.85;6.43;;;23.30;67.20;;;;;;4982608;28;20443;-67
2022/07/25 03:46:44;;;;;;;12.07;6.35;;;23.30;67.30;;;;;;5019335;28;20026;-66
2022/07/25 03:49:10;;;;;;;9.43;7.35;;;23.30;67.30;;;;;;5013917;28;20030;-65
2022/07/25 03:51:36;;;;;;;9.50;6.75;;;23.30;67.30;;;;;;5014256;28;20038;-66
2022/07/25 03:54:02;;;;;;;10.13;6.72;;;23.30;68.00;;;;;;5013592;28;20459;-66
2022/07/25 03:56:35;;;;;;;10.73;7.15;;;23.30;67.30;;;;;;5012549;28;20152;-66
2022/07/25 03:59:00;;;;;;;10.65;7.22;;;23.30;67.40;;;;;;5014501;28;20096;-66
2022/07/25 04:01:26;;;;;;;9.32;7.03;;;23.30;67.30;;;;;;5012240;28;20029;-66
2022/07/25 04:03:51;;;;;;;10.43;7.15;;;23.30;67.40;;;;;;5013354;28;20125;-65
2022/07/25 04:06:17;;;;;;;9.68;7.13;;;23.30;67.40;;;;;;5015020;28;20099;-66
2022/07/25 04:08:43;;;;;;;11.60;7.38;;;23.30;67.40;;;;;;5014855;28;20116;-66
2022/07/25 04:11:09;;;;;;;9.40;6.60;;;23.30;67.50;;;;;;5014648;28;20022;-65
2022/07/25 04:13:34;;;;;;;11.68;7.60;;;23.30;67.50;;;;;;5011744;28;20038;-65
2022/07/25 04:16:00;;;;;;;8.93;6.25;;;23.30;67.50;;;;;;5013183;28;20037;-65
2022/07/25 04:18:25;;;;;;;10.90;7.60;;;23.20;67.50;;;;;;5013906;28;20160;-66
2022/07/25 04:20:51;;;;;;;9.35;6.47;;;23.30;67.60;;;;;;5014992;28;20096;-66
2022/07/25 04:23:16;;;;;;;11.05;7.65;;;23.30;67.60;;;;;;5014341;28;20040;-65
2022/07/25 04:25:42;;;;;;;11.32;7.30;;;23.30;67.70;;;;;;5006069;28;20026;-65
2022/07/25 04:28:08;;;;;;;9.75;7.10;;;23.30;67.60;;;;;;5012839;28;20029;-66
2022/07/25 04:30:34;;;;;;;10.57;7.82;;;23.30;67.70;;;;;;5015749;28;20099;-66
2022/07/25 04:32:59;;;;;;;11.95;7.15;;;23.30;67.60;;;;;;5011470;28;20517;-66
2022/07/25 04:35:25;;;;;;;9.55;7.13;;;23.30;67.70;;;;;;5014502;28;20070;-65
2022/07/25 04:37:50;;;;;;;9.48;7.10;;;23.30;67.70;;;;;;5013493;28;20022;-65
2022/07/25 04:40:16;;;;;;;9.65;6.28;;;23.30;67.60;;;;;;5014512;28;20396;-65
2022/07/25 04:42:42;;;;;;;8.93;6.60;;;23.30;67.60;;;;;;5012474;28;20474;-66
2022/07/25 04:45:08;;;;;;;9.40;7.22;;;23.40;67.60;;;;;;5014924;28;20076;-65
2022/07/25 04:47:34;;;;;;;10.60;7.47;;;23.40;67.70;;;;;;5016596;28;20030;-66
2022/07/25 04:50:00;;;;;;;10.93;6.80;;;23.40;67.70;;;;;;5013140;28;20041;-66
2022/07/25 04:52:26;;;;;;;10.98;6.78;;;23.40;67.80;;;;;;5016589;28;20038;-65
2022/07/25 04:54:51;;;;;;;9.90;6.85;;;23.40;67.80;;;;;;5012947;28;20127;-66
2022/07/25 04:57:17;;;;;;;12.55;7.28;;;23.50;67.90;;;;;;5012939;28;20034;-67
2022/07/25 04:59:43;;;;;;;11.85;7.80;;;23.50;67.80;;;;;;5008802;28;20065;-67
2022/07/25 05:02:09;;;;;;;12.88;7.97;;;23.50;67.60;;;;;;5016007;28;20069;-66
2022/07/25 05:04:34;;;;;;;10.40;7.65;;;23.60;67.50;;;;;;5010317;28;20466;-66
2022/07/25 05:07:00;;;;;;;13.35;8.70;;;23.60;67.50;;;;;;5011466;28;20065;-66
2022/07/25 05:09:26;;;;;;;11.27;8.27;;;23.60;67.10;;;;;;5016407;28;20108;-66
2022/07/25 05:11:52;;;;;;;9.90;7.43;;;23.70;66.90;;;;;;5015695;28;20041;-66
2022/07/25 05:14:18;;;;;;;10.07;7.97;;;23.70;66.80;;;;;;5016243;28;20065;-66
2022/07/25 05:16:44;;;;;;;11.45;7.97;;;23.80;66.60;;;;;;5014362;28;20037;-66
2022/07/25 05:19:10;;;;;;;10.20;7.30;;;23.80;66.50;;;;;;5017751;28;20414;-66
2022/07/25 05:21:37;;;;;;;12.32;8.40;;;23.90;66.70;;;;;;5014644;28;20022;-65
2022/07/25 05:24:03;;;;;;;11.82;7.75;;;23.90;66.60;;;;;;5016450;28;20454;-65
2022/07/25 05:26:29;;;;;;;10.65;8.18;;;24.00;66.60;;;;;;5015870;28;20370;-67
2022/07/25 05:28:54;;;;;;;10.32;7.90;;;24.00;66.40;;;;;;5016693;28;20116;-66
2022/07/25 05:31:20;;;;;;;10.50;7.82;;;24.10;66.20;;;;;;5015551;28;20026;-66
2022/07/25 05:33:45;;;;;;;10.63;7.82;;;24.10;66.20;;;;;;5014949;28;20026;-66
2022/07/25 05:36:11;;;;;;;9.05;7.05;;;24.20;66.30;;;;;;5014382;28;20713;-66
2022/07/25 05:38:37;;;;;;;11.73;8.27;;;24.20;66.30;;;;;;5012542;28;20025;-66
2022/07/25 05:41:03;;;;;;;10.90;8.13;;;24.30;66.40;;;;;;5015765;28;20443;-66
2022/07/25 05:43:29;;;;;;;11.00;7.88;;;24.30;66.40;;;;;;5015604;28;20037;-66
2022/07/25 05:46:03;;;;;;;10.50;7.35;;;24.30;66.30;;;;;;5016344;28;20142;-65
2022/07/25 05:48:29;;;;;;;10.30;7.43;;;24.40;66.10;;;;;;5016561;28;20092;-65
2022/07/25 05:50:55;;;;;;;11.65;7.60;;;24.40;65.60;;;;;;5017109;28;20034;-66
2022/07/25 05:53:21;;;;;;;11.07;7.53;;;24.50;65.40;;;;;;5016389;28;20058;-65
2022/07/25 05:55:46;;;;;;;11.68;7.93;;;24.50;65.00;;;;;;5014143;28;20058;-65
2022/07/25 05:58:12;;;;;;;10.48;7.60;;;24.60;64.50;;;;;;5014814;28;20095;-65
2022/07/25 06:00:38;;;;;;;10.30;7.05;;;24.70;63.80;;;;;;5016544;28;20080;-65
2022/07/25 06:03:03;;;;;;;10.15;6.90;;;24.80;63.20;;;;;;5015698;28;20026;-66
2022/07/25 06:05:29;;;;;;;10.38;7.03;;;24.90;62.60;;;;;;5014795;28;20030;-66
2022/07/25 06:07:55;;;;;;;10.82;7.10;;;25.00;62.20;;;;;;5015810;28;20034;-67
2022/07/25 06:10:21;;;;;;;10.63;7.10;;;25.10;61.50;;;;;;5016245;28;20025;-67
2022/07/25 06:12:47;;;;;;;10.60;6.65;;;25.20;61.00;;;;;;5014274;28;20026;-67
2022/07/25 06:15:13;;;;;;;10.38;6.75;;;25.20;60.60;;;;;;5014522;28;20046;-67
2022/07/25 06:17:38;;;;;;;13.18;6.50;;;25.30;60.20;;;;;;5015615;28;20432;-67
2022/07/25 06:20:04;;;;;;;11.68;6.28;;;25.30;59.90;;;;;;5030511;28;20030;-67
2022/07/25 06:22:30;;;;;;;9.88;6.28;;;25.40;59.80;;;;;;5015856;28;20084;-67
2022/07/25 06:24:56;;;;;;;9.80;7.13;;;25.50;59.50;;;;;;5014983;28;20033;-67
2022/07/25 06:27:22;;;;;;;11.77;6.55;;;25.60;59.20;;;;;;5014319;28;20084;-67
2022/07/25 06:29:47;;;;;;;12.00;7.63;;;25.70;58.90;;;;;;5015492;28;20104;-67
2022/07/25 06:32:13;;;;;;;10.20;7.22;;;25.70;58.60;;;;;;5014018;28;20057;-66
2022/07/25 06:34:39;;;;;;;11.65;7.38;;;25.70;58.50;;;;;;5014742;28;20129;-67
2022/07/25 06:37:04;;;;;;;11.00;6.90;;;25.80;58.20;;;;;;5014053;28;20038;-67
2022/07/25 06:39:30;;;;;;;9.63;6.97;;;25.90;58.10;;;;;;5014509;28;20018;-67
2022/07/25 06:41:58;;;;;;;12.05;6.97;;;25.90;58.00;;;;;;5013320;28;20022;-66
2022/07/25 06:44:35;;;;;;;10.02;7.57;;;25.90;58.00;;;;;;5007741;28;20079;-67
2022/07/25 06:47:01;;;;;;;11.40;7.10;;;26.00;58.00;;;;;;5015503;28;20037;-67
2022/07/25 06:49:27;;;;;;;12.32;7.05;;;26.00;58.00;;;;;;5009423;28;20045;-67
2022/07/25 06:51:53;;;;;;;11.30;7.82;;;26.00;58.10;;;;;;5017524;28;20029;-66
2022/07/25 06:54:18;;;;;;;11.77;7.85;;;25.90;58.10;;;;;;5015506;28;20443;-67
2022/07/25 06:56:44;;;;;;;11.50;7.90;;;25.90;58.00;;;;;;5014883;28;20087;-66
2022/07/25 06:59:10;;;;;;;10.60;6.72;;;25.80;58.10;;;;;;5008919;28;20022;-66
2022/07/25 07:01:35;;;;;;;9.93;6.95;;;25.70;58.60;;;;;;5026504;28;20354;-67
2022/07/25 07:04:02;;;;;;;11.02;7.70;;;25.60;58.70;;;;;;5015558;28;20044;-68
2022/07/25 07:06:28;;;;;;;11.93;8.10;;;25.50;58.70;;;;;;5019643;28;20358;-66
2022/07/25 07:08:53;;;;;;;14.02;7.93;;;25.50;58.90;;;;;;5017595;28;20034;-66
2022/07/25 07:11:19;;;;;;;10.82;7.57;;;25.50;59.00;;;;;;5015347;28;20465;-66
2022/07/25 07:13:44;;;;;;;12.40;7.43;;;25.60;59.00;;;;;;5013988;28;20523;-67
2022/07/25 07:16:10;;;;;;;12.35;7.15;;;25.70;58.80;;;;;;5013010;28;20313;-66
2022/07/25 07:18:36;;;;;;;11.75;8.02;;;25.80;58.40;;;;;;5013837;28;20453;-66
2022/07/25 07:21:03;;;;;;;10.50;7.13;;;25.80;58.20;;;;;;5012917;28;20030;-67
2022/07/25 07:23:28;;;;;;;13.20;7.15;;;25.90;58.20;;;;;;5014184;28;20091;-66
2022/07/25 07:25:55;;;;;;;11.15;7.90;;;25.90;58.10;;;;;;5013893;28;20478;-67
2022/07/25 07:28:20;;;;;;;9.95;6.95;;;25.90;58.00;;;;;;5013949;28;20101;-67
2022/07/25 07:30:46;;;;;;;14.25;7.30;;;25.90;58.10;;;;;;5013408;28;20402;-68
2022/07/25 07:33:12;;;;;;;10.07;6.70;;;25.90;58.20;;;;;;5014624;28;20359;-66
2022/07/25 07:35:38;;;;;;;10.90;6.53;;;26.00;58.00;;;;;;5013147;28;20045;-66
2022/07/25 07:38:03;;;;;;;10.07;6.78;;;26.20;57.90;;;;;;5015121;28;20022;-66
2022/07/25 07:40:29;;;;;;;10.50;6.60;;;26.20;57.80;;;;;;5013351;28;20076;-66
2022/07/25 07:42:56;;;;;;;10.80;6.55;;;26.20;58.00;;;;;;5014697;28;20044;-67
2022/07/25 07:45:23;;;;;;;9.45;5.82;;;26.20;58.00;;;;;;5012039;28;20037;-66
2022/07/25 07:47:51;;;;;;;9.88;5.55;;;26.20;57.90;;;;;;5015042;28;20041;-65
2022/07/25 07:50:23;;;;;;;8.27;4.90;;;26.10;58.00;;;;;;5008203;28;20316;-67
2022/07/25 07:52:49;;;;;;;7.22;4.35;;;26.10;58.10;;;;;;5014665;28;20037;-67
2022/07/25 07:57:59;;;;;;;7.57;4.65;;;26.20;58.10;;;;;;5012804;28;20439;-66
2022/07/25 08:00:26;;;;;;;7.80;4.28;;;26.20;57.90;;;;;;5014196;28;20040;-66
2022/07/25 08:02:54;;;;;;;7.60;4.22;;;26.20;57.50;;;;;;5004237;28;20080;-67
2022/07/25 08:05:26;;;;;;;6.75;4.03;;;26.20;57.20;;;;;;5003285;28;20026;-67
2022/07/25 08:07:53;;;;;;;7.85;4.15;;;26.20;57.00;;;;;;5019037;28;20026;-67
2022/07/25 08:10:25;;;;;;;9.57;4.15;;;26.30;56.90;;;;;;5007696;28;20030;-67
2022/07/25 08:12:51;;;;;;;6.97;3.90;;;26.50;56.50;;;;;;5013594;28;20359;-66
2022/07/25 08:15:18;;;;;;;8.15;3.78;;;26.70;56.00;;;;;;5011777;28;20030;-66
2022/07/25 08:17:44;;;;;;;7.00;4.00;;;26.80;55.80;;;;;;5012645;28;20022;-66
2022/07/25 08:20:10;;;;;;;7.97;4.28;;;26.80;55.70;;;;;;5013481;28;20127;-67
2022/07/25 08:22:41;;;;;;;7.15;4.00;;;26.70;55.90;;;;;;5006534;28;20037;-67
2022/07/25 08:25:09;;;;;;;6.65;3.20;;;26.60;56.00;;;;;;5013238;28;20312;-67
2022/07/25 08:27:35;;;;;;;5.72;2.92;;;26.50;56.30;;;;;;5011895;28;20203;-67
2022/07/25 08:30:03;;;;;;;7.38;3.40;;;26.40;56.20;;;;;;5014349;28;20132;-67
2022/07/25 08:32:28;;;;;;;5.50;2.80;;;26.40;56.10;;;;;;4997514;28;20064;-67
2022/07/25 08:34:55;;;;;;;6.03;2.75;;;26.50;55.60;;;;;;5014931;28;20069;-67
2022/07/25 08:37:21;;;;;;;6.15;2.67;;;26.80;55.10;;;;;;5016328;28;20022;-67
2022/07/25 08:39:47;;;;;;;9.70;2.72;;;27.00;54.20;;;;;;5016474;28;20444;-67
2022/07/25 08:42:14;;;;;;;4.28;2.03;;;27.30;53.40;;;;;;5008973;28;20037;-67
2022/07/25 08:44:46;;;;;;;4.55;2.33;;;27.40;53.10;;;;;;5004973;28;20025;-67
2022/07/25 08:47:14;;;;;;;4.35;2.00;;;27.40;52.80;;;;;;5015251;28;20030;-67
2022/07/25 08:49:40;;;;;;;5.32;1.98;;;27.50;52.90;;;;;;5017211;28;20084;-67
2022/07/25 08:52:08;;;;;;;4.93;2.13;;;27.50;52.80;;;;;;5016175;28;20026;-67
2022/07/25 08:54:34;;;;;;;6.10;2.40;;;27.50;52.70;;;;;;5007150;28;20033;-67
2022/07/25 08:57:00;;;;;;;7.22;2.65;;;27.50;52.90;;;;;;5015964;28;20026;-67
2022/07/25 08:59:26;;;;;;;4.95;2.10;;;27.50;53.00;;;;;;5016571;28;20113;-67
2022/07/25 09:01:51;;;;;;;4.68;2.17;;;27.40;53.10;;;;;;5014698;28;20037;-67
2022/07/25 09:04:17;;;;;;;4.25;2.20;;;27.50;53.20;;;;;;5016857;28;20026;-62
2022/07/25 09:06:50;;;;;;;5.15;1.98;;;27.70;53.20;;;;;;5014136;28;20030;-63
2022/07/25 09:09:16;;;;;;;6.00;2.35;;;27.90;52.80;;;;;;5015835;28;20125;-62
2022/07/25 09:11:41;;;;;;;5.30;1.70;;;27.90;52.70;;;;;;5015355;28;20498;-62
2022/07/25 09:14:11;;;;;;;4.20;1.98;;;27.90;52.70;;;;;;5015910;28;20442;-62
2022/07/25 09:16:42;;;;;;;4.30;1.80;;;27.80;52.90;;;;;;5014978;28;20059;-62
2022/07/25 09:19:09;;;;;;;4.38;2.03;;;27.70;53.10;;;;;;5015151;28;20037;-62
2022/07/25 09:21:35;;;;;;;3.47;1.70;;;27.60;53.30;;;;;;5017209;28;20466;-63
2022/07/25 09:24:27;;;;;;;3.80;1.40;;;27.60;53.60;;;;;;5026032;28;20022;-62
2022/07/25 09:26:58;;;;;;;3.42;1.52;;;27.80;54.30;;;;;;5008970;28;20415;-64
2022/07/25 09:29:31;;;;;;;3.67;1.55;;;27.90;53.50;;;;;;5013116;28;20026;-62
2022/07/25 09:31:58;;;;;;;2.85;1.40;;;27.90;53.50;;;;;;5017240;28;20033;-62
2022/07/25 09:34:41;;;;;;;5.35;2.00;;;27.90;53.80;;;;;;5016091;28;20022;-62
2022/07/25 09:37:09;;;;;;;3.67;1.50;;;27.70;54.00;;;;;;5004510;28;20033;-62
2022/07/25 09:39:41;;;;;;;4.65;1.73;;;27.70;54.20;;;;;;5022203;28;20052;-62
2022/07/25 09:42:24;;;;;;;8.02;1.92;;;27.70;54.40;;;;;;5016518;28;20080;-62
2022/07/25 09:45:06;;;;;;;3.50;1.58;;;27.80;54.40;;;;;;5008931;28;20050;-62
2022/07/25 09:47:35;;;;;;;7.57;1.52;;;28.10;54.20;;;;;;5014839;28;20336;-62
2022/07/25 09:50:01;;;;;;;4.97;1.70;;;28.40;53.80;;;;;;4999234;28;20038;-62
2022/07/25 09:52:27;;;;;;;4.38;1.50;;;28.50;53.80;;;;;;5011713;28;20057;-62
2022/07/25 09:54:53;;;;;;;5.03;1.50;;;28.60;53.60;;;;;;5010435;28;21544;-61
2022/07/25 09:57:20;;;;;;;3.70;1.27;;;28.70;53.10;;;;;;5011741;28;20034;-62
2022/07/25 09:59:46;;;;;;;4.70;1.65;;;28.80;53.50;;;;;;5020887;28;20022;-62
2022/07/25 10:02:46;;;;;;;2.47;1.15;;;28.90;52.80;;;;;;5018850;28;20359;-62
2022/07/25 10:05:37;;;;;;;2.80;1.08;;;29.10;52.80;;;;;;5011377;28;20459;-62
2022/07/25 10:08:06;;;;;;;4.28;1.10;;;28.90;52.20;;;;;;5021328;28;20730;-62
2022/07/25 10:10:37;;;;;;;5.22;1.48;;;28.80;52.30;;;;;;5021641;28;20030;-61
2022/07/25 10:13:12;;;;;;;4.00;1.40;;;28.60;52.50;;;;;;5018316;28;20029;-61
2022/07/25 10:15:50;;;;;;;1.70;1.10;;;28.60;52.80;;;;;;5013967;28;20042;-62
2022/07/25 10:18:18;;;;;;;2.72;1.27;;;28.60;52.70;;;;;;5011350;28;21288;-61
2022/07/25 10:20:45;;;;;;;3.00;1.30;;;28.60;52.70;;;;;;5011564;28;20030;-62
2022/07/25 10:23:21;;;;;;;3.53;1.40;;;28.60;52.80;;;;;;5013602;28;20057;-62
2022/07/25 10:25:57;;;;;;;5.00;1.40;;;28.50;52.80;;;;;;5010814;28;20366;-62
2022/07/25 10:28:35;;;;;;;5.03;1.70;;;28.50;52.90;;;;;;5012478;28;20022;-61
2022/07/25 10:31:01;;;;;;;3.95;1.60;;;28.60;52.90;;;;;;5010106;28;20038;-62
2022/07/25 10:33:27;;;;;;;2.20;1.08;;;28.50;52.90;;;;;;4997519;28;20053;-61
2022/07/25 10:35:52;;;;;;;4.43;1.60;;;28.50;53.00;;;;;;5012493;28;20408;-62
2022/07/25 10:38:27;;;;;;;5.10;1.60;;;28.50;53.10;;;;;;5009073;28;20029;-61
2022/07/25 10:40:52;;;;;;;4.85;1.75;;;28.50;53.30;;;;;;5008567;28;20042;-61
2022/07/25 10:43:24;;;;;;;5.32;1.75;;;28.60;53.40;;;;;;5002804;28;20018;-61
2022/07/25 10:45:57;;;;;;;4.75;1.55;;;28.60;53.20;;;;;;5013115;28;20042;-61
2022/07/25 10:48:26;;;;;;;5.40;1.70;;;28.60;53.00;;;;;;5015588;28;20030;-61
2022/07/25 10:51:05;;;;;;;3.92;1.60;;;28.70;52.70;;;;;;5002738;28;20045;-61
2022/07/25 10:53:46;;;;;;;4.43;1.60;;;28.70;51.80;;;;;;5014746;28;20058;-61
2022/07/25 10:56:18;;;;;;;4.22;1.60;;;28.70;51.70;;;;;;5014454;28;20332;-61
2022/07/25 10:58:49;;;;;;;5.10;1.67;;;28.60;51.50;;;;;;5014807;28;20450;-61
2022/07/25 11:01:23;;;;;;;5.22;1.60;;;28.60;51.00;;;;;;5015948;28;20058;-61
2022/07/25 11:03:51;;;;;;;4.25;1.90;;;28.60;51.20;;;;;;5014182;28;20042;-61
2022/07/25 11:06:35;;;;;;;4.13;1.40;;;28.60;51.30;;;;;;5014773;28;20026;-61
2022/07/25 11:09:20;;;;;;;4.60;1.85;;;28.60;51.20;;;;;;5014436;28;20034;-60
2022/07/25 11:11:49;;;;;;;5.68;1.60;;;28.40;51.20;;;;;;5015445;28;20108;-61
2022/07/25 11:14:18;;;;;;;4.03;1.65;;;28.50;50.90;;;;;;5015094;28;20079;-60
2022/07/25 11:16:46;;;;;;;3.72;1.55;;;28.40;50.80;;;;;;5014881;28;20328;-61
2022/07/25 11:19:24;;;;;;;5.53;1.73;;;28.40;50.80;;;;;;5014729;28;20364;-60
2022/07/25 11:21:58;;;;;;;4.80;1.63;;;28.30;51.00;;;;;;5015038;28;20338;-60
2022/07/25 11:24:44;;;;;;;4.43;1.73;;;28.30;51.30;;;;;;5015150;28;20034;-60
2022/07/25 11:27:24;;;;;;;5.57;1.90;;;28.40;51.30;;;;;;5015123;28;20033;-61
2022/07/25 11:29:50;;;;;;;6.18;1.50;;;28.40;51.30;;;;;;5015407;28;20493;-61
2022/07/25 11:32:16;;;;;;;6.25;1.83;;;28.40;51.40;;;;;;5015355;28;20461;-61
2022/07/25 11:34:49;;;;;;;6.47;1.90;;;28.50;51.40;;;;;;5014219;28;20062;-60
2022/07/25 11:37:15;;;;;;;5.15;1.83;;;28.40;51.40;;;;;;5015108;28;20037;-60
2022/07/25 11:39:43;;;;;;;6.70;2.28;;;28.30;51.50;;;;;;5015148;28;20030;-61
2022/07/25 11:42:11;;;;;;;4.65;1.88;;;28.30;51.40;;;;;;5015045;28;20030;-61
2022/07/25 11:44:45;;;;;;;4.47;1.60;;;28.30;51.60;;;;;;5015108;28;20029;-62
2022/07/25 11:47:31;;;;;;;6.10;1.98;;;28.30;51.60;;;;;;5014098;28;20036;-61
2022/07/25 11:49:59;;;;;;;6.25;1.70;;;28.10;51.50;;;;;;5014057;28;20037;-61
2022/07/25 11:52:30;;;;;;;6.32;2.10;;;28.10;51.80;;;;;;5014845;28;20062;-61
2022/07/25 11:55:00;;;;;;;;;;;28.00;52.00;;;;;;5015374;28;20029;-61
2022/07/25 11:57:28;;;;;;;9.15;2.03;;;28.00;52.10;;;;;;5015208;28;19932;-60
2022/07/25 11:59:55;;;;;;;5.60;2.03;;;27.90;52.00;;;;;;5014970;28;20428;-60
2022/07/25 12:02:39;;;;;;;6.30;2.20;;;27.80;52.00;;;;;;5014622;28;20037;-60
2022/07/25 12:05:10;;;;;;;5.97;2.28;;;27.70;52.10;;;;;;5013645;28;20025;-60
2022/07/25 12:07:45;;;;;;;7.20;2.50;;;27.50;52.40;;;;;;5001053;28;20034;-60
2022/07/25 12:10:34;;;;;;;5.22;1.85;;;27.30;52.60;;;;;;5014432;28;20034;-61
2022/07/25 12:13:02;;;;;;;6.93;1.98;;;27.20;52.50;;;;;;5015595;28;20117;-61
2022/07/25 12:15:30;;;;;;;4.90;1.73;;;27.10;52.60;;;;;;5019931;28;20076;-60
2022/07/25 12:17:57;;;;;;;4.20;1.73;;;27.10;52.70;;;;;;5014097;28;20049;-60
2022/07/25 12:20:29;;;;;;;6.55;1.95;;;27.10;52.50;;;;;;5015172;28;20116;-60
2022/07/25 12:22:57;;;;;;;5.78;1.85;;;27.20;52.20;;;;;;5013387;28;20058;-62
2022/07/25 12:25:23;;;;;;;7.32;2.05;;;27.20;51.80;;;;;;5014424;28;20034;-61
2022/07/25 12:27:49;;;;;;;5.07;2.00;;;27.20;51.30;;;;;;5013003;28;20041;-61
2022/07/25 12:30:16;;;;;;;5.25;2.33;;;27.20;51.00;;;;;;5016104;28;20373;-61
2022/07/25 12:32:41;;;;;;;6.90;1.90;;;27.20;50.90;;;;;;5027525;28;20033;-61
2022/07/25 12:35:09;;;;;;;6.15;2.30;;;27.20;51.00;;;;;;5013061;28;20033;-61
2022/07/25 12:37:36;;;;;;;7.72;2.35;;;27.20;51.10;;;;;;5012415;28;20034;-61
2022/07/25 12:40:02;;;;;;;5.82;2.30;;;27.20;51.10;;;;;;5008731;28;20473;-60
2022/07/25 12:42:28;;;;;;;10.68;2.75;;;27.30;51.10;;;;;;5009160;28;20089;-60
2022/07/25 12:44:55;;;;;;;6.53;2.28;;;27.30;51.00;;;;;;5011707;28;20049;-60
2022/07/25 12:47:21;;;;;;;7.60;2.70;;;27.40;51.00;;;;;;5010983;28;20029;-59
2022/07/25 12:49:47;;;;;;;6.10;2.67;;;27.50;51.00;;;;;;5009131;28;20493;-59